sensor_id;sensor_type;location;lat;lon;timestamp;P1;durP1;ratioP1;P2;durP2;ratioP2
42978;SDS011;28616;44.746;19.678;2023-02-02T00:02:04;195.77;;;70.60;;
42978;SDS011;28616;44.746;19.678;2023-02-02T00:04:31;142.13;;;56.80;;
42978;SDS011;28616;44.746;19.678;2023-02-02T00:06:59;252.02;;;86.38;;
42978;SDS011;28616;44.746;19.678;2023-02-02T00:09:26;206.43;;;71.22;;
42978;SDS011;28616;44.746;19.678;2023-02-02T00:11:53;79.10;;;35.97;;
42978;SDS011;28616;44.746;19.678;2023-02-02T00:14:19;54.05;;;24.35;;
42978;SDS011;28616;44.746;19.678;2023-02-02T00:19:16;81.38;;;29.60;;
42978;SDS011;28616;44.746;19.678;2023-02-02T00:21:47;67.03;;;27.02;;
42978;SDS011;28616;44.746;19.678;2023-02-02T00:24:15;46.20;;;20.02;;
42978;SDS011;28616;44.746;19.678;2023-02-02T00:29:21;34.70;;;15.90;;
42978;SDS011;28616;44.746;19.678;2023-02-02T00:31:49;48.87;;;19.70;;
42978;SDS011;28616;44.746;19.678;2023-02-02T00:34:15;61.90;;;23.42;;
42978;SDS011;28616;44.746;19.678;2023-02-02T00:36:41;34.97;;;16.73;;
42978;SDS011;28616;44.746;19.678;2023-02-02T00:39:08;33.10;;;15.88;;
42978;SDS011;28616;44.746;19.678;2023-02-02T00:41:35;56.50;;;21.63;;
42978;SDS011;28616;44.746;19.678;2023-02-02T00:44:00;50.67;;;19.80;;
42978;SDS011;28616;44.746;19.678;2023-02-02T00:46:44;58.80;;;22.50;;
42978;SDS011;28616;44.746;19.678;2023-02-02T00:49:10;59.85;;;25.17;;
42978;SDS011;28616;44.746;19.678;2023-02-02T00:51:36;121.90;;;51.05;;
42978;SDS011;28616;44.746;19.678;2023-02-02T00:54:02;82.88;;;39.05;;
42978;SDS011;28616;44.746;19.678;2023-02-02T00:56:28;105.18;;;49.92;;
42978;SDS011;28616;44.746;19.678;2023-02-02T00:58:54;127.30;;;57.58;;
42978;SDS011;28616;44.746;19.678;2023-02-02T01:01:20;116.63;;;52.25;;
42978;SDS011;28616;44.746;19.678;2023-02-02T01:03:47;112.38;;;51.67;;
42978;SDS011;28616;44.746;19.678;2023-02-02T01:06:14;91.97;;;41.75;;
42978;SDS011;28616;44.746;19.678;2023-02-02T01:08:40;83.60;;;36.60;;
42978;SDS011;28616;44.746;19.678;2023-02-02T01:11:06;66.20;;;28.48;;
42978;SDS011;28616;44.746;19.678;2023-02-02T01:13:31;39.10;;;18.10;;
42978;SDS011;28616;44.746;19.678;2023-02-02T01:15:58;30.52;;;15.20;;
42978;SDS011;28616;44.746;19.678;2023-02-02T01:18:25;48.63;;;18.90;;
42978;SDS011;28616;44.746;19.678;2023-02-02T01:21:02;69.07;;;26.92;;
42978;SDS011;28616;44.746;19.678;2023-02-02T01:23:29;52.70;;;20.17;;
42978;SDS011;28616;44.746;19.678;2023-02-02T01:25:57;41.70;;;19.55;;
42978;SDS011;28616;44.746;19.678;2023-02-02T01:28:24;57.95;;;22.00;;
42978;SDS011;28616;44.746;19.678;2023-02-02T01:30:50;76.68;;;30.00;;
42978;SDS011;28616;44.746;19.678;2023-02-02T01:33:16;37.47;;;15.38;;
42978;SDS011;28616;44.746;19.678;2023-02-02T01:38:16;46.00;;;21.17;;
42978;SDS011;28616;44.746;19.678;2023-02-02T01:40:53;55.67;;;20.63;;
42978;SDS011;28616;44.746;19.678;2023-02-02T01:45:50;47.72;;;17.30;;
42978;SDS011;28616;44.746;19.678;2023-02-02T01:48:20;31.10;;;13.50;;
42978;SDS011;28616;44.746;19.678;2023-02-02T01:50:50;54.85;;;19.90;;
42978;SDS011;28616;44.746;19.678;2023-02-02T01:53:20;27.65;;;12.48;;
42978;SDS011;28616;44.746;19.678;2023-02-02T01:55:47;36.80;;;16.60;;
42978;SDS011;28616;44.746;19.678;2023-02-02T01:58:18;33.67;;;15.38;;
42978;SDS011;28616;44.746;19.678;2023-02-02T02:00:47;48.65;;;18.05;;
42978;SDS011;28616;44.746;19.678;2023-02-02T02:03:14;48.75;;;19.08;;
42978;SDS011;28616;44.746;19.678;2023-02-02T02:05:45;44.22;;;19.25;;
42978;SDS011;28616;44.746;19.678;2023-02-02T02:08:19;44.80;;;20.00;;
42978;SDS011;28616;44.746;19.678;2023-02-02T02:10:48;35.65;;;16.98;;
42978;SDS011;28616;44.746;19.678;2023-02-02T02:13:14;31.35;;;12.65;;
42978;SDS011;28616;44.746;19.678;2023-02-02T02:15:44;39.40;;;15.38;;
42978;SDS011;28616;44.746;19.678;2023-02-02T02:18:44;40.63;;;17.67;;
42978;SDS011;28616;44.746;19.678;2023-02-02T02:21:44;34.38;;;15.38;;
42978;SDS011;28616;44.746;19.678;2023-02-02T02:31:16;25.30;;;12.43;;
42978;SDS011;28616;44.746;19.678;2023-02-02T02:33:54;27.75;;;12.15;;
42978;SDS011;28616;44.746;19.678;2023-02-02T02:39:22;28.05;;;13.88;;
42978;SDS011;28616;44.746;19.678;2023-02-02T02:41:52;29.77;;;13.63;;
42978;SDS011;28616;44.746;19.678;2023-02-02T02:44:23;38.72;;;16.92;;
42978;SDS011;28616;44.746;19.678;2023-02-02T02:46:50;31.70;;;14.20;;
42978;SDS011;28616;44.746;19.678;2023-02-02T02:49:17;34.83;;;14.05;;
42978;SDS011;28616;44.746;19.678;2023-02-02T02:51:50;24.20;;;11.00;;
42978;SDS011;28616;44.746;19.678;2023-02-02T02:54:21;25.95;;;13.23;;
42978;SDS011;28616;44.746;19.678;2023-02-02T03:05:36;69.88;;;27.60;;
42978;SDS011;28616;44.746;19.678;2023-02-02T03:10:28;36.75;;;16.40;;
42978;SDS011;28616;44.746;19.678;2023-02-02T03:12:55;28.63;;;12.95;;
42978;SDS011;28616;44.746;19.678;2023-02-02T03:15:21;25.40;;;12.95;;
42978;SDS011;28616;44.746;19.678;2023-02-02T03:17:48;32.67;;;15.90;;
42978;SDS011;28616;44.746;19.678;2023-02-02T03:20:16;34.05;;;17.20;;
42978;SDS011;28616;44.746;19.678;2023-02-02T03:22:42;27.08;;;13.35;;
42978;SDS011;28616;44.746;19.678;2023-02-02T03:25:08;35.38;;;15.98;;
42978;SDS011;28616;44.746;19.678;2023-02-02T03:27:36;29.67;;;14.40;;
42978;SDS011;28616;44.746;19.678;2023-02-02T03:30:04;35.40;;;14.73;;
42978;SDS011;28616;44.746;19.678;2023-02-02T03:32:32;36.67;;;11.05;;
42978;SDS011;28616;44.746;19.678;2023-02-02T03:34:58;25.63;;;12.90;;
42978;SDS011;28616;44.746;19.678;2023-02-02T03:37:24;32.88;;;15.23;;
42978;SDS011;28616;44.746;19.678;2023-02-02T03:39:50;41.63;;;15.75;;
42978;SDS011;28616;44.746;19.678;2023-02-02T03:42:15;29.65;;;11.85;;
42978;SDS011;28616;44.746;19.678;2023-02-02T03:44:41;31.80;;;12.63;;
42978;SDS011;28616;44.746;19.678;2023-02-02T03:47:07;24.08;;;12.15;;
42978;SDS011;28616;44.746;19.678;2023-02-02T03:49:33;33.25;;;14.85;;
42978;SDS011;28616;44.746;19.678;2023-02-02T03:51:58;30.90;;;15.07;;
42978;SDS011;28616;44.746;19.678;2023-02-02T03:54:26;34.10;;;15.07;;
42978;SDS011;28616;44.746;19.678;2023-02-02T03:56:52;85.72;;;31.63;;
42978;SDS011;28616;44.746;19.678;2023-02-02T03:59:18;55.13;;;22.85;;
42978;SDS011;28616;44.746;19.678;2023-02-02T04:01:44;52.42;;;21.98;;
42978;SDS011;28616;44.746;19.678;2023-02-02T04:04:09;58.45;;;24.13;;
42978;SDS011;28616;44.746;19.678;2023-02-02T04:06:35;56.55;;;24.17;;
42978;SDS011;28616;44.746;19.678;2023-02-02T04:09:01;85.15;;;35.67;;
42978;SDS011;28616;44.746;19.678;2023-02-02T04:11:27;74.55;;;31.23;;
42978;SDS011;28616;44.746;19.678;2023-02-02T04:13:52;72.88;;;33.55;;
42978;SDS011;28616;44.746;19.678;2023-02-02T04:16:18;65.22;;;28.83;;
42978;SDS011;28616;44.746;19.678;2023-02-02T04:18:44;50.38;;;23.40;;
42978;SDS011;28616;44.746;19.678;2023-02-02T04:21:09;63.65;;;28.30;;
42978;SDS011;28616;44.746;19.678;2023-02-02T04:23:35;102.05;;;35.72;;
42978;SDS011;28616;44.746;19.678;2023-02-02T04:26:01;72.97;;;29.25;;
42978;SDS011;28616;44.746;19.678;2023-02-02T04:28:27;107.32;;;38.28;;
42978;SDS011;28616;44.746;19.678;2023-02-02T04:30:54;345.95;;;122.47;;
42978;SDS011;28616;44.746;19.678;2023-02-02T04:33:20;353.38;;;128.68;;
42978;SDS011;28616;44.746;19.678;2023-02-02T04:35:47;168.68;;;63.03;;
42978;SDS011;28616;44.746;19.678;2023-02-02T04:38:13;137.80;;;55.33;;
42978;SDS011;28616;44.746;19.678;2023-02-02T04:40:39;115.03;;;50.20;;
42978;SDS011;28616;44.746;19.678;2023-02-02T04:43:09;106.63;;;45.88;;
42978;SDS011;28616;44.746;19.678;2023-02-02T04:45:36;111.00;;;44.30;;
42978;SDS011;28616;44.746;19.678;2023-02-02T04:48:02;109.68;;;45.05;;
42978;SDS011;28616;44.746;19.678;2023-02-02T04:50:29;395.80;;;154.30;;
42978;SDS011;28616;44.746;19.678;2023-02-02T04:52:55;211.15;;;83.25;;
42978;SDS011;28616;44.746;19.678;2023-02-02T04:55:21;124.00;;;52.53;;
42978;SDS011;28616;44.746;19.678;2023-02-02T04:57:47;106.90;;;45.60;;
42978;SDS011;28616;44.746;19.678;2023-02-02T05:00:13;102.93;;;44.00;;
42978;SDS011;28616;44.746;19.678;2023-02-02T05:02:39;99.93;;;42.67;;
42978;SDS011;28616;44.746;19.678;2023-02-02T05:05:06;95.72;;;42.97;;
42978;SDS011;28616;44.746;19.678;2023-02-02T05:07:35;94.18;;;43.55;;
42978;SDS011;28616;44.746;19.678;2023-02-02T05:10:01;114.72;;;48.92;;
42978;SDS011;28616;44.746;19.678;2023-02-02T05:12:28;120.15;;;51.13;;
42978;SDS011;28616;44.746;19.678;2023-02-02T05:14:54;249.70;;;90.07;;
42978;SDS011;28616;44.746;19.678;2023-02-02T05:17:20;242.45;;;88.85;;
42978;SDS011;28616;44.746;19.678;2023-02-02T05:19:45;240.95;;;96.50;;
42978;SDS011;28616;44.746;19.678;2023-02-02T05:22:11;237.82;;;97.75;;
42978;SDS011;28616;44.746;19.678;2023-02-02T05:24:37;292.27;;;112.88;;
42978;SDS011;28616;44.746;19.678;2023-02-02T05:27:02;297.52;;;114.38;;
42978;SDS011;28616;44.746;19.678;2023-02-02T05:29:29;196.93;;;80.35;;
42978;SDS011;28616;44.746;19.678;2023-02-02T05:31:55;352.70;;;129.60;;
42978;SDS011;28616;44.746;19.678;2023-02-02T05:34:21;263.45;;;103.35;;
42978;SDS011;28616;44.746;19.678;2023-02-02T05:36:47;248.80;;;95.15;;
42978;SDS011;28616;44.746;19.678;2023-02-02T05:39:13;255.25;;;96.82;;
42978;SDS011;28616;44.746;19.678;2023-02-02T05:41:39;265.45;;;104.32;;
42978;SDS011;28616;44.746;19.678;2023-02-02T05:44:06;263.70;;;98.78;;
42978;SDS011;28616;44.746;19.678;2023-02-02T05:46:33;290.38;;;108.22;;
42978;SDS011;28616;44.746;19.678;2023-02-02T05:49:00;329.42;;;124.75;;
42978;SDS011;28616;44.746;19.678;2023-02-02T05:51:30;304.20;;;117.63;;
42978;SDS011;28616;44.746;19.678;2023-02-02T05:54:00;275.88;;;106.63;;
42978;SDS011;28616;44.746;19.678;2023-02-02T05:56:26;245.00;;;97.35;;
42978;SDS011;28616;44.746;19.678;2023-02-02T05:58:52;221.98;;;88.82;;
42978;SDS011;28616;44.746;19.678;2023-02-02T06:01:17;204.52;;;83.20;;
42978;SDS011;28616;44.746;19.678;2023-02-02T06:03:45;199.25;;;80.18;;
42978;SDS011;28616;44.746;19.678;2023-02-02T06:06:11;219.75;;;88.15;;
42978;SDS011;28616;44.746;19.678;2023-02-02T06:08:37;227.18;;;95.30;;
42978;SDS011;28616;44.746;19.678;2023-02-02T06:11:09;245.85;;;99.07;;
42978;SDS011;28616;44.746;19.678;2023-02-02T06:13:36;307.70;;;127.70;;
42978;SDS011;28616;44.746;19.678;2023-02-02T06:16:02;351.60;;;147.98;;
42978;SDS011;28616;44.746;19.678;2023-02-02T06:18:27;375.60;;;164.27;;
42978;SDS011;28616;44.746;19.678;2023-02-02T06:20:59;373.13;;;162.20;;
42978;SDS011;28616;44.746;19.678;2023-02-02T06:23:26;361.80;;;160.02;;
42978;SDS011;28616;44.746;19.678;2023-02-02T06:25:52;310.80;;;139.07;;
42978;SDS011;28616;44.746;19.678;2023-02-02T06:28:18;386.00;;;173.45;;
42978;SDS011;28616;44.746;19.678;2023-02-02T06:30:44;494.98;;;226.73;;
42978;SDS011;28616;44.746;19.678;2023-02-02T06:33:10;474.15;;;221.10;;
42978;SDS011;28616;44.746;19.678;2023-02-02T06:35:35;357.08;;;156.07;;
42978;SDS011;28616;44.746;19.678;2023-02-02T06:38:01;338.45;;;148.05;;
42978;SDS011;28616;44.746;19.678;2023-02-02T06:40:27;290.05;;;117.72;;
42978;SDS011;28616;44.746;19.678;2023-02-02T06:42:57;193.32;;;87.32;;
42978;SDS011;28616;44.746;19.678;2023-02-02T06:45:27;193.35;;;80.55;;
42978;SDS011;28616;44.746;19.678;2023-02-02T06:47:58;173.15;;;70.65;;
42978;SDS011;28616;44.746;19.678;2023-02-02T06:50:29;154.20;;;59.00;;
42978;SDS011;28616;44.746;19.678;2023-02-02T06:52:55;65.45;;;28.42;;
42978;SDS011;28616;44.746;19.678;2023-02-02T06:55:20;74.57;;;33.97;;
42978;SDS011;28616;44.746;19.678;2023-02-02T06:57:46;96.15;;;36.25;;
42978;SDS011;28616;44.746;19.678;2023-02-02T07:00:12;80.15;;;33.13;;
42978;SDS011;28616;44.746;19.678;2023-02-02T07:02:38;82.35;;;34.30;;
42978;SDS011;28616;44.746;19.678;2023-02-02T07:05:04;242.18;;;74.03;;
42978;SDS011;28616;44.746;19.678;2023-02-02T07:07:30;380.13;;;121.60;;
42978;SDS011;28616;44.746;19.678;2023-02-02T07:09:57;193.90;;;71.18;;
42978;SDS011;28616;44.746;19.678;2023-02-02T07:12:23;238.27;;;86.57;;
42978;SDS011;28616;44.746;19.678;2023-02-02T07:14:50;115.88;;;49.67;;
42978;SDS011;28616;44.746;19.678;2023-02-02T07:17:16;92.28;;;40.95;;
42978;SDS011;28616;44.746;19.678;2023-02-02T07:19:42;81.68;;;40.60;;
42978;SDS011;28616;44.746;19.678;2023-02-02T07:22:08;82.68;;;39.72;;
42978;SDS011;28616;44.746;19.678;2023-02-02T07:24:34;89.20;;;40.65;;
42978;SDS011;28616;44.746;19.678;2023-02-02T07:27:02;77.85;;;37.30;;
42978;SDS011;28616;44.746;19.678;2023-02-02T07:29:28;90.63;;;43.00;;
42978;SDS011;28616;44.746;19.678;2023-02-02T07:31:54;95.97;;;44.88;;
42978;SDS011;28616;44.746;19.678;2023-02-02T07:34:20;89.68;;;40.85;;
42978;SDS011;28616;44.746;19.678;2023-02-02T07:36:46;80.30;;;38.42;;
42978;SDS011;28616;44.746;19.678;2023-02-02T07:39:11;81.13;;;39.15;;
42978;SDS011;28616;44.746;19.678;2023-02-02T07:41:37;69.78;;;33.30;;
42978;SDS011;28616;44.746;19.678;2023-02-02T07:44:03;72.10;;;27.92;;
42978;SDS011;28616;44.746;19.678;2023-02-02T07:46:30;68.43;;;30.15;;
42978;SDS011;28616;44.746;19.678;2023-02-02T07:48:56;53.85;;;26.20;;
42978;SDS011;28616;44.746;19.678;2023-02-02T07:51:23;54.10;;;25.80;;
42978;SDS011;28616;44.746;19.678;2023-02-02T07:53:50;43.60;;;22.17;;
42978;SDS011;28616;44.746;19.678;2023-02-02T07:56:18;39.63;;;19.15;;
42978;SDS011;28616;44.746;19.678;2023-02-02T07:58:46;41.88;;;20.58;;
42978;SDS011;28616;44.746;19.678;2023-02-02T08:01:12;54.00;;;23.42;;
42978;SDS011;28616;44.746;19.678;2023-02-02T08:03:39;49.08;;;22.77;;
42978;SDS011;28616;44.746;19.678;2023-02-02T08:06:23;58.72;;;25.65;;
42978;SDS011;28616;44.746;19.678;2023-02-02T08:08:50;58.22;;;26.92;;
42978;SDS011;28616;44.746;19.678;2023-02-02T08:11:17;53.97;;;25.02;;
42978;SDS011;28616;44.746;19.678;2023-02-02T08:13:44;40.50;;;19.38;;
42978;SDS011;28616;44.746;19.678;2023-02-02T08:16:13;59.83;;;25.55;;
42978;SDS011;28616;44.746;19.678;2023-02-02T08:18:39;59.15;;;27.65;;
42978;SDS011;28616;44.746;19.678;2023-02-02T08:21:06;59.80;;;26.70;;
42978;SDS011;28616;44.746;19.678;2023-02-02T08:23:34;63.25;;;29.25;;
42978;SDS011;28616;44.746;19.678;2023-02-02T08:26:07;69.57;;;32.53;;
42978;SDS011;28616;44.746;19.678;2023-02-02T08:28:38;56.47;;;27.90;;
42978;SDS011;28616;44.746;19.678;2023-02-02T08:31:16;65.18;;;30.25;;
42978;SDS011;28616;44.746;19.678;2023-02-02T08:33:43;61.55;;;28.20;;
42978;SDS011;28616;44.746;19.678;2023-02-02T08:36:12;60.83;;;28.23;;
42978;SDS011;28616;44.746;19.678;2023-02-02T08:38:40;73.97;;;33.65;;
42978;SDS011;28616;44.746;19.678;2023-02-02T08:41:06;62.67;;;29.48;;
42978;SDS011;28616;44.746;19.678;2023-02-02T08:43:33;42.47;;;20.92;;
42978;SDS011;28616;44.746;19.678;2023-02-02T08:45:59;37.65;;;18.75;;
42978;SDS011;28616;44.746;19.678;2023-02-02T08:48:25;34.80;;;17.08;;
42978;SDS011;28616;44.746;19.678;2023-02-02T08:50:52;52.22;;;22.00;;
42978;SDS011;28616;44.746;19.678;2023-02-02T08:53:18;48.35;;;22.88;;
42978;SDS011;28616;44.746;19.678;2023-02-02T08:55:45;38.10;;;19.58;;
42978;SDS011;28616;44.746;19.678;2023-02-02T08:58:10;40.92;;;19.52;;
42978;SDS011;28616;44.746;19.678;2023-02-02T09:00:36;35.80;;;17.45;;
42978;SDS011;28616;44.746;19.678;2023-02-02T09:03:02;34.20;;;17.33;;
42978;SDS011;28616;44.746;19.678;2023-02-02T09:05:27;48.25;;;21.88;;
42978;SDS011;28616;44.746;19.678;2023-02-02T09:07:53;55.15;;;25.05;;
42978;SDS011;28616;44.746;19.678;2023-02-02T09:10:19;88.32;;;40.15;;
42978;SDS011;28616;44.746;19.678;2023-02-02T09:12:44;83.57;;;34.85;;
42978;SDS011;28616;44.746;19.678;2023-02-02T09:15:13;74.75;;;34.95;;
42978;SDS011;28616;44.746;19.678;2023-02-02T09:17:39;74.38;;;33.28;;
42978;SDS011;28616;44.746;19.678;2023-02-02T09:20:05;72.38;;;30.30;;
42978;SDS011;28616;44.746;19.678;2023-02-02T09:22:31;79.00;;;36.33;;
42978;SDS011;28616;44.746;19.678;2023-02-02T09:24:57;82.78;;;35.05;;
42978;SDS011;28616;44.746;19.678;2023-02-02T09:27:23;58.33;;;23.92;;
42978;SDS011;28616;44.746;19.678;2023-02-02T09:29:48;41.25;;;18.88;;
42978;SDS011;28616;44.746;19.678;2023-02-02T09:32:15;47.75;;;22.17;;
42978;SDS011;28616;44.746;19.678;2023-02-02T09:34:41;44.72;;;22.30;;
42978;SDS011;28616;44.746;19.678;2023-02-02T09:37:06;37.72;;;17.35;;
42978;SDS011;28616;44.746;19.678;2023-02-02T09:39:32;45.35;;;20.55;;
42978;SDS011;28616;44.746;19.678;2023-02-02T09:42:02;49.95;;;19.27;;
42978;SDS011;28616;44.746;19.678;2023-02-02T09:52:39;64.88;;;27.90;;
42978;SDS011;28616;44.746;19.678;2023-02-02T09:55:09;60.05;;;26.42;;
42978;SDS011;28616;44.746;19.678;2023-02-02T09:57:53;67.15;;;25.15;;
42978;SDS011;28616;44.746;19.678;2023-02-02T10:00:32;53.63;;;20.33;;
42978;SDS011;28616;44.746;19.678;2023-02-02T10:03:01;25.52;;;12.52;;
42978;SDS011;28616;44.746;19.678;2023-02-02T10:05:54;24.58;;;11.80;;
42978;SDS011;28616;44.746;19.678;2023-02-02T10:08:32;39.00;;;17.17;;
42978;SDS011;28616;44.746;19.678;2023-02-02T10:11:38;32.80;;;14.50;;
42978;SDS011;28616;44.746;19.678;2023-02-02T10:14:02;29.88;;;13.85;;
42978;SDS011;28616;44.746;19.678;2023-02-02T10:16:34;30.90;;;15.07;;
42978;SDS011;28616;44.746;19.678;2023-02-02T10:19:08;27.98;;;13.63;;
42978;SDS011;28616;44.746;19.678;2023-02-02T10:21:45;38.42;;;18.35;;
42978;SDS011;28616;44.746;19.678;2023-02-02T10:24:25;30.23;;;13.98;;
42978;SDS011;28616;44.746;19.678;2023-02-02T10:26:56;36.00;;;17.95;;
42978;SDS011;28616;44.746;19.678;2023-02-02T10:29:51;21.30;;;11.95;;
42978;SDS011;28616;44.746;19.678;2023-02-02T10:32:46;28.40;;;13.40;;
42978;SDS011;28616;44.746;19.678;2023-02-02T10:41:40;19.73;;;10.40;;
42978;SDS011;28616;44.746;19.678;2023-02-02T10:44:32;70.20;;;31.50;;
42978;SDS011;28616;44.746;19.678;2023-02-02T10:47:08;43.58;;;20.88;;
42978;SDS011;28616;44.746;19.678;2023-02-02T10:49:37;41.83;;;21.00;;
42978;SDS011;28616;44.746;19.678;2023-02-02T10:57:11;28.77;;;14.43;;
42978;SDS011;28616;44.746;19.678;2023-02-02T10:59:51;25.17;;;13.70;;
42978;SDS011;28616;44.746;19.678;2023-02-02T11:05:00;25.88;;;14.10;;
42978;SDS011;28616;44.746;19.678;2023-02-02T11:07:45;35.05;;;12.32;;
42978;SDS011;28616;44.746;19.678;2023-02-02T11:10:10;25.30;;;11.77;;
42978;SDS011;28616;44.746;19.678;2023-02-02T11:12:38;22.45;;;10.60;;
42978;SDS011;28616;44.746;19.678;2023-02-02T11:15:08;24.30;;;10.63;;
42978;SDS011;28616;44.746;19.678;2023-02-02T11:17:49;35.72;;;18.35;;
42978;SDS011;28616;44.746;19.678;2023-02-02T11:20:34;34.35;;;15.02;;
42978;SDS011;28616;44.746;19.678;2023-02-02T11:23:03;44.90;;;22.35;;
42978;SDS011;28616;44.746;19.678;2023-02-02T11:25:37;42.67;;;18.20;;
42978;SDS011;28616;44.746;19.678;2023-02-02T11:28:17;31.15;;;15.10;;
42978;SDS011;28616;44.746;19.678;2023-02-02T11:30:45;32.38;;;14.93;;
42978;SDS011;28616;44.746;19.678;2023-02-02T11:35:59;32.22;;;15.35;;
42978;SDS011;28616;44.746;19.678;2023-02-02T11:38:25;42.78;;;19.92;;
42978;SDS011;28616;44.746;19.678;2023-02-02T11:46:05;50.22;;;24.38;;
42978;SDS011;28616;44.746;19.678;2023-02-02T11:48:46;69.65;;;29.55;;
42978;SDS011;28616;44.746;19.678;2023-02-02T11:51:27;71.40;;;27.40;;
42978;SDS011;28616;44.746;19.678;2023-02-02T11:54:13;66.85;;;30.45;;
42978;SDS011;28616;44.746;19.678;2023-02-02T11:56:47;205.13;;;76.25;;
42978;SDS011;28616;44.746;19.678;2023-02-02T12:04:56;57.75;;;25.15;;
42978;SDS011;28616;44.746;19.678;2023-02-02T12:07:42;40.65;;;17.48;;
42978;SDS011;28616;44.746;19.678;2023-02-02T12:20:48;43.97;;;20.33;;
42978;SDS011;28616;44.746;19.678;2023-02-02T12:34:53;58.70;;;19.27;;
42978;SDS011;28616;44.746;19.678;2023-02-02T12:51:30;52.28;;;20.17;;
42978;SDS011;28616;44.746;19.678;2023-02-02T12:54:15;103.68;;;43.33;;
42978;SDS011;28616;44.746;19.678;2023-02-02T13:07:48;189.20;;;73.18;;
42978;SDS011;28616;44.746;19.678;2023-02-02T13:10:37;157.35;;;64.65;;
42978;SDS011;28616;44.746;19.678;2023-02-02T13:13:08;95.38;;;41.90;;
42978;SDS011;28616;44.746;19.678;2023-02-02T13:15:54;33.92;;;18.50;;
42978;SDS011;28616;44.746;19.678;2023-02-02T13:19:07;35.38;;;16.67;;
42978;SDS011;28616;44.746;19.678;2023-02-02T13:21:33;29.30;;;13.88;;
42978;SDS011;28616;44.746;19.678;2023-02-02T13:24:01;37.78;;;16.23;;
42978;SDS011;28616;44.746;19.678;2023-02-02T13:26:31;36.90;;;16.90;;
42978;SDS011;28616;44.746;19.678;2023-02-02T13:34:25;37.05;;;18.42;;
42978;SDS011;28616;44.746;19.678;2023-02-02T13:37:16;22.67;;;10.30;;
42978;SDS011;28616;44.746;19.678;2023-02-02T13:39:55;37.05;;;19.80;;
42978;SDS011;28616;44.746;19.678;2023-02-02T13:48:12;44.63;;;18.13;;
42978;SDS011;28616;44.746;19.678;2023-02-02T13:50:51;34.95;;;14.88;;
42978;SDS011;28616;44.746;19.678;2023-02-02T13:59:11;27.05;;;13.52;;
42978;SDS011;28616;44.746;19.678;2023-02-02T14:01:45;39.70;;;18.35;;
42978;SDS011;28616;44.746;19.678;2023-02-02T14:04:18;51.45;;;20.27;;
42978;SDS011;28616;44.746;19.678;2023-02-02T14:06:59;114.57;;;37.78;;
42978;SDS011;28616;44.746;19.678;2023-02-02T14:09:30;70.70;;;28.73;;
42978;SDS011;28616;44.746;19.678;2023-02-02T14:12:03;57.10;;;24.05;;
42978;SDS011;28616;44.746;19.678;2023-02-02T14:14:31;37.88;;;15.48;;
42978;SDS011;28616;44.746;19.678;2023-02-02T14:18:00;56.22;;;24.45;;
42978;SDS011;28616;44.746;19.678;2023-02-02T14:20:00;67.88;;;27.67;;
42978;SDS011;28616;44.746;19.678;2023-02-02T14:22:37;65.07;;;27.40;;
42978;SDS011;28616;44.746;19.678;2023-02-02T14:25:48;88.47;;;35.03;;
42978;SDS011;28616;44.746;19.678;2023-02-02T14:27:58;98.13;;;35.42;;
42978;SDS011;28616;44.746;19.678;2023-02-02T14:30:44;93.65;;;38.55;;
42978;SDS011;28616;44.746;19.678;2023-02-02T14:33:38;99.47;;;40.20;;
42978;SDS011;28616;44.746;19.678;2023-02-02T14:36:12;110.00;;;42.40;;
42978;SDS011;28616;44.746;19.678;2023-02-02T14:38:49;111.70;;;40.03;;
42978;SDS011;28616;44.746;19.678;2023-02-02T14:41:28;149.95;;;54.60;;
42978;SDS011;28616;44.746;19.678;2023-02-02T14:44:33;146.23;;;58.83;;
42978;SDS011;28616;44.746;19.678;2023-02-02T14:47:01;176.10;;;67.15;;
42978;SDS011;28616;44.746;19.678;2023-02-02T14:49:31;153.85;;;60.90;;
42978;SDS011;28616;44.746;19.678;2023-02-02T14:51:59;103.57;;;43.17;;
42978;SDS011;28616;44.746;19.678;2023-02-02T14:54:33;112.28;;;45.72;;
42978;SDS011;28616;44.746;19.678;2023-02-02T14:59:53;91.05;;;39.03;;
42978;SDS011;28616;44.746;19.678;2023-02-02T15:02:28;70.60;;;29.10;;
42978;SDS011;28616;44.746;19.678;2023-02-02T15:13:17;78.13;;;30.45;;
42978;SDS011;28616;44.746;19.678;2023-02-02T15:15:50;92.13;;;36.10;;
42978;SDS011;28616;44.746;19.678;2023-02-02T15:18:28;83.47;;;36.22;;
42978;SDS011;28616;44.746;19.678;2023-02-02T15:21:02;75.55;;;33.95;;
42978;SDS011;28616;44.746;19.678;2023-02-02T15:23:32;100.00;;;42.55;;
42978;SDS011;28616;44.746;19.678;2023-02-02T15:28:41;93.07;;;43.17;;
42978;SDS011;28616;44.746;19.678;2023-02-02T15:33:52;128.40;;;56.50;;
42978;SDS011;28616;44.746;19.678;2023-02-02T15:38:49;152.90;;;70.97;;
42978;SDS011;28616;44.746;19.678;2023-02-02T15:41:25;260.85;;;111.65;;
42978;SDS011;28616;44.746;19.678;2023-02-02T15:43:56;261.77;;;106.68;;
42978;SDS011;28616;44.746;19.678;2023-02-02T15:46:23;148.27;;;64.25;;
42978;SDS011;28616;44.746;19.678;2023-02-02T15:51:46;192.77;;;85.35;;
42978;SDS011;28616;44.746;19.678;2023-02-02T15:54:21;158.35;;;74.72;;
42978;SDS011;28616;44.746;19.678;2023-02-02T15:56:48;212.00;;;97.65;;
42978;SDS011;28616;44.746;19.678;2023-02-02T15:59:19;212.63;;;93.15;;
42978;SDS011;28616;44.746;19.678;2023-02-02T16:01:50;165.00;;;70.60;;
42978;SDS011;28616;44.746;19.678;2023-02-02T16:04:42;218.87;;;94.10;;
42978;SDS011;28616;44.746;19.678;2023-02-02T16:07:13;236.27;;;106.72;;
42978;SDS011;28616;44.746;19.678;2023-02-02T16:09:42;211.65;;;94.82;;
42978;SDS011;28616;44.746;19.678;2023-02-02T16:12:13;208.38;;;88.70;;
42978;SDS011;28616;44.746;19.678;2023-02-02T16:14:47;229.60;;;103.47;;
42978;SDS011;28616;44.746;19.678;2023-02-02T16:19:45;192.82;;;86.22;;
42978;SDS011;28616;44.746;19.678;2023-02-02T16:22:19;143.35;;;63.20;;
42978;SDS011;28616;44.746;19.678;2023-02-02T16:24:56;120.40;;;51.47;;
42978;SDS011;28616;44.746;19.678;2023-02-02T16:27:25;127.15;;;49.97;;
42978;SDS011;28616;44.746;19.678;2023-02-02T16:29:53;137.10;;;59.40;;
42978;SDS011;28616;44.746;19.678;2023-02-02T16:32:26;150.32;;;66.00;;
42978;SDS011;28616;44.746;19.678;2023-02-02T16:34:54;169.38;;;67.00;;
42978;SDS011;28616;44.746;19.678;2023-02-02T16:39:51;152.85;;;67.20;;
42978;SDS011;28616;44.746;19.678;2023-02-02T16:42:25;189.15;;;84.85;;
42978;SDS011;28616;44.746;19.678;2023-02-02T16:44:52;176.90;;;76.75;;
42978;SDS011;28616;44.746;19.678;2023-02-02T16:52:18;138.27;;;64.90;;
42978;SDS011;28616;44.746;19.678;2023-02-02T16:54:54;118.53;;;57.78;;
42978;SDS011;28616;44.746;19.678;2023-02-02T16:57:25;121.25;;;57.13;;
42978;SDS011;28616;44.746;19.678;2023-02-02T17:00:04;129.45;;;56.15;;
42978;SDS011;28616;44.746;19.678;2023-02-02T17:02:32;108.28;;;46.72;;
42978;SDS011;28616;44.746;19.678;2023-02-02T17:07:32;107.75;;;50.97;;